sensor_id;sensor_type;location;lat;lon;timestamp;pressure;altitude;pressure_sealevel;temperature;humidity
54453;BME280;40363;52.270;10.546;2023-04-07T00:01:55;77356.75;;;-147.06;46.98
54453;BME280;40363;52.270;10.546;2023-04-07T00:04:22;77360.88;;;-147.06;47.14
54453;BME280;40363;52.270;10.546;2023-04-07T00:06:50;77340.31;;;-147.06;46.70
54453;BME280;40363;52.270;10.546;2023-04-07T00:09:16;77362.91;;;-147.06;46.75
54453;BME280;40363;52.270;10.546;2023-04-07T00:11:43;77342.38;;;-147.06;46.23
54453;BME280;40363;52.270;10.546;2023-04-07T00:14:10;77344.41;;;-147.06;46.18
54453;BME280;40363;52.270;10.546;2023-04-07T00:16:36;77340.31;;;-147.06;46.14
54453;BME280;40363;52.270;10.546;2023-04-07T00:19:03;77348.53;;;-147.06;46.30
54453;BME280;40363;52.270;10.546;2023-04-07T00:21:30;77348.53;;;-147.06;45.91
54453;BME280;40363;52.270;10.546;2023-04-07T00:23:58;77340.31;;;-147.06;46.05
54453;BME280;40363;52.270;10.546;2023-04-07T00:26:25;77346.47;;;-147.06;45.88
54453;BME280;40363;52.270;10.546;2023-04-07T00:28:55;77336.19;;;-147.06;46.22
54453;BME280;40363;52.270;10.546;2023-04-07T00:31:22;77352.66;;;-147.06;45.82
54453;BME280;40363;52.270;10.546;2023-04-07T00:33:49;77338.25;;;-147.06;46.06
54453;BME280;40363;52.270;10.546;2023-04-07T00:36:15;77338.25;;;-147.06;45.44
54453;BME280;40363;52.270;10.546;2023-04-07T00:38:42;77334.13;;;-147.06;45.94
54453;BME280;40363;52.270;10.546;2023-04-07T00:41:10;77332.09;;;-147.06;45.46
54453;BME280;40363;52.270;10.546;2023-04-07T00:43:37;77340.31;;;-147.06;45.41
54453;BME280;40363;52.270;10.546;2023-04-07T00:46:03;77319.75;;;-147.06;45.48
54453;BME280;40363;52.270;10.546;2023-04-07T00:48:30;77334.13;;;-147.06;45.13
54453;BME280;40363;52.270;10.546;2023-04-07T00:50:57;77311.53;;;-147.06;44.99
54453;BME280;40363;52.270;10.546;2023-04-07T00:53:24;77342.38;;;-147.06;45.17
54453;BME280;40363;52.270;10.546;2023-04-07T00:55:50;77340.31;;;-147.06;45.15
54453;BME280;40363;52.270;10.546;2023-04-07T00:58:18;77342.38;;;-147.06;44.94
54453;BME280;40363;52.270;10.546;2023-04-07T01:00:58;77317.69;;;-147.06;45.03
54453;BME280;40363;52.270;10.546;2023-04-07T01:03:44;77336.19;;;-147.06;45.08
54453;BME280;40363;52.270;10.546;2023-04-07T01:06:14;77327.97;;;-147.06;44.66
54453;BME280;40363;52.270;10.546;2023-04-07T01:08:47;77319.75;;;-147.06;44.90
54453;BME280;40363;52.270;10.546;2023-04-07T01:11:20;77319.75;;;-147.06;44.99
54453;BME280;40363;52.270;10.546;2023-04-07T01:13:51;77334.13;;;-147.06;45.05
54453;BME280;40363;52.270;10.546;2023-04-07T01:16:34;77338.25;;;-147.06;45.14
54453;BME280;40363;52.270;10.546;2023-04-07T01:19:10;77352.66;;;-147.06;45.12
54453;BME280;40363;52.270;10.546;2023-04-07T01:21:41;77348.53;;;-147.06;45.28
54453;BME280;40363;52.270;10.546;2023-04-07T01:24:51;77346.47;;;-147.06;45.17
54453;BME280;40363;52.270;10.546;2023-04-07T01:27:35;77340.31;;;-147.06;45.29
54453;BME280;40363;52.270;10.546;2023-04-07T01:33:23;77332.09;;;-147.06;45.05
54453;BME280;40363;52.270;10.546;2023-04-07T01:35:50;77362.91;;;-147.06;45.28
54453;BME280;40363;52.270;10.546;2023-04-07T01:38:18;77356.75;;;-147.06;45.43
54453;BME280;40363;52.270;10.546;2023-04-07T01:40:47;77348.53;;;-147.06;45.22
54453;BME280;40363;52.270;10.546;2023-04-07T01:43:16;77348.53;;;-147.06;45.25
54453;BME280;40363;52.270;10.546;2023-04-07T01:45:44;77356.75;;;-147.06;45.36
54453;BME280;40363;52.270;10.546;2023-04-07T01:48:12;77350.59;;;-147.06;45.19
54453;BME280;40363;52.270;10.546;2023-04-07T01:50:40;77352.66;;;-147.06;45.36
54453;BME280;40363;52.270;10.546;2023-04-07T01:53:08;77373.19;;;-147.06;45.70
54453;BME280;40363;52.270;10.546;2023-04-07T01:55:36;77383.47;;;-147.06;45.78
54453;BME280;40363;52.270;10.546;2023-04-07T01:58:04;77377.31;;;-147.06;45.71
54453;BME280;40363;52.270;10.546;2023-04-07T02:00:31;77393.75;;;-147.06;45.92
54453;BME280;40363;52.270;10.546;2023-04-07T02:03:06;77373.19;;;-147.06;45.90
54453;BME280;40363;52.270;10.546;2023-04-07T02:05:35;77373.19;;;-147.06;45.92
54453;BME280;40363;52.270;10.546;2023-04-07T02:08:07;77373.19;;;-147.06;46.06
54453;BME280;40363;52.270;10.546;2023-04-07T02:10:36;77389.66;;;-147.06;45.99
54453;BME280;40363;52.270;10.546;2023-04-07T02:13:06;77404.03;;;-147.06;46.40
54453;BME280;40363;52.270;10.546;2023-04-07T02:15:35;77385.53;;;-147.06;46.10
54453;BME280;40363;52.270;10.546;2023-04-07T02:18:03;77426.66;;;-147.06;46.46
54453;BME280;40363;52.270;10.546;2023-04-07T02:20:33;77420.50;;;-147.06;46.46
54453;BME280;40363;52.270;10.546;2023-04-07T02:23:00;77410.22;;;-147.06;46.25
54453;BME280;40363;52.270;10.546;2023-04-07T02:25:31;77406.09;;;-147.06;47.10
54453;BME280;40363;52.270;10.546;2023-04-07T02:27:59;77420.50;;;-147.06;46.83
54453;BME280;40363;52.270;10.546;2023-04-07T02:30:26;77443.09;;;-147.06;47.29
54453;BME280;40363;52.270;10.546;2023-04-07T02:32:53;77459.53;;;-147.06;47.17
54453;BME280;40363;52.270;10.546;2023-04-07T02:35:20;77449.28;;;-147.06;47.03
54453;BME280;40363;52.270;10.546;2023-04-07T02:37:47;77463.66;;;-147.06;47.52
54453;BME280;40363;52.270;10.546;2023-04-07T02:40:14;77467.78;;;-147.06;47.52
54453;BME280;40363;52.270;10.546;2023-04-07T02:42:42;77471.88;;;-147.06;47.46
54453;BME280;40363;52.270;10.546;2023-04-07T02:45:10;77459.53;;;-147.06;47.26
54453;BME280;40363;52.270;10.546;2023-04-07T02:47:37;77463.66;;;-147.06;46.71
54453;BME280;40363;52.270;10.546;2023-04-07T02:50:05;77467.78;;;-147.06;47.15
54453;BME280;40363;52.270;10.546;2023-04-07T02:52:32;77463.66;;;-147.06;47.02
54453;BME280;40363;52.270;10.546;2023-04-07T02:54:59;77488.34;;;-147.06;47.26
54453;BME280;40363;52.270;10.546;2023-04-07T02:57:26;77484.22;;;-147.06;47.39
54453;BME280;40363;52.270;10.546;2023-04-07T02:59:54;77488.34;;;-147.06;47.20
54453;BME280;40363;52.270;10.546;2023-04-07T03:02:22;77486.28;;;-147.06;47.52
54453;BME280;40363;52.270;10.546;2023-04-07T03:04:49;77488.34;;;-147.06;47.36
54453;BME280;40363;52.270;10.546;2023-04-07T03:07:16;77496.56;;;-147.06;47.37
54453;BME280;40363;52.270;10.546;2023-04-07T03:09:43;77492.44;;;-147.06;47.15
54453;BME280;40363;52.270;10.546;2023-04-07T03:12:09;77502.72;;;-147.06;47.63
54453;BME280;40363;52.270;10.546;2023-04-07T03:14:36;77480.09;;;-147.06;47.26
54453;BME280;40363;52.270;10.546;2023-04-07T03:17:04;77494.50;;;-147.06;47.45
54453;BME280;40363;52.270;10.546;2023-04-07T03:19:31;77498.59;;;-147.06;47.48
54453;BME280;40363;52.270;10.546;2023-04-07T03:21:57;77492.44;;;-147.06;47.55
54453;BME280;40363;52.270;10.546;2023-04-07T03:24:24;77515.06;;;-147.06;47.81
54453;BME280;40363;52.270;10.546;2023-04-07T03:26:51;77510.94;;;-147.06;47.55
54453;BME280;40363;52.270;10.546;2023-04-07T03:29:18;77506.84;;;-147.06;47.65
54453;BME280;40363;52.270;10.546;2023-04-07T03:31:45;77496.56;;;-147.06;47.57
54453;BME280;40363;52.270;10.546;2023-04-07T03:34:14;77521.22;;;-147.06;47.77
54453;BME280;40363;52.270;10.546;2023-04-07T03:36:40;77515.06;;;-147.06;47.65
54453;BME280;40363;52.270;10.546;2023-04-07T03:39:10;77506.84;;;-147.06;47.68
54453;BME280;40363;52.270;10.546;2023-04-07T03:41:37;77517.13;;;-147.06;47.85
54453;BME280;40363;52.270;10.546;2023-04-07T03:44:04;77508.88;;;-147.06;47.79
54453;BME280;40363;52.270;10.546;2023-04-07T03:46:34;77525.34;;;-147.06;47.54
54453;BME280;40363;52.270;10.546;2023-04-07T03:49:00;77529.44;;;-147.06;47.23
54453;BME280;40363;52.270;10.546;2023-04-07T03:51:28;77525.34;;;-147.06;47.44
54453;BME280;40363;52.270;10.546;2023-04-07T03:53:55;77523.28;;;-147.06;47.40
54453;BME280;40363;52.270;10.546;2023-04-07T03:56:22;77521.22;;;-147.06;47.41
54453;BME280;40363;52.270;10.546;2023-04-07T03:58:49;77513.00;;;-147.06;47.10
54453;BME280;40363;52.270;10.546;2023-04-07T04:01:15;77523.28;;;-147.06;47.24
54453;BME280;40363;52.270;10.546;2023-04-07T04:03:42;77504.78;;;-147.06;47.94
54453;BME280;40363;52.270;10.546;2023-04-07T04:06:09;77529.44;;;-147.06;47.47
54453;BME280;40363;52.270;10.546;2023-04-07T04:08:36;77537.66;;;-147.06;47.39
54453;BME280;40363;52.270;10.546;2023-04-07T04:11:03;77531.50;;;-147.06;47.39
54453;BME280;40363;52.270;10.546;2023-04-07T04:13:30;77533.56;;;-147.06;48.04
54453;BME280;40363;52.270;10.546;2023-04-07T04:15:57;77535.63;;;-147.06;47.98
54453;BME280;40363;52.270;10.546;2023-04-07T04:18:23;77545.91;;;-147.06;48.46
54453;BME280;40363;52.270;10.546;2023-04-07T04:20:50;77556.19;;;-147.06;48.94
54453;BME280;40363;52.270;10.546;2023-04-07T04:23:16;77562.34;;;-147.06;49.63
54453;BME280;40363;52.270;10.546;2023-04-07T04:25:45;77574.69;;;-147.06;49.92
54453;BME280;40363;52.270;10.546;2023-04-07T04:28:11;77595.25;;;-147.06;50.51
54453;BME280;40363;52.270;10.546;2023-04-07T04:30:38;77599.34;;;-147.06;50.84
54453;BME280;40363;52.270;10.546;2023-04-07T04:33:05;77607.56;;;-147.06;51.45
54453;BME280;40363;52.270;10.546;2023-04-07T04:35:31;77628.13;;;-147.06;51.91
54453;BME280;40363;52.270;10.546;2023-04-07T04:37:58;77636.34;;;-147.06;52.00
54453;BME280;40363;52.270;10.546;2023-04-07T04:40:25;77636.34;;;-147.06;52.18
54453;BME280;40363;52.270;10.546;2023-04-07T04:42:53;77640.47;;;-147.06;52.31
54453;BME280;40363;52.270;10.546;2023-04-07T04:45:19;77640.47;;;-147.06;51.81
54453;BME280;40363;52.270;10.546;2023-04-07T04:47:46;77636.34;;;-147.06;51.89
54453;BME280;40363;52.270;10.546;2023-04-07T04:50:12;77640.47;;;-147.06;52.73
54453;BME280;40363;52.270;10.546;2023-04-07T04:52:39;77650.75;;;-147.06;53.35
54453;BME280;40363;52.270;10.546;2023-04-07T04:55:07;77650.75;;;-147.06;53.26
54453;BME280;40363;52.270;10.546;2023-04-07T04:57:33;77652.81;;;-147.06;53.34
54453;BME280;40363;52.270;10.546;2023-04-07T05:00:02;77646.63;;;-147.06;52.86
54453;BME280;40363;52.270;10.546;2023-04-07T05:02:29;77673.38;;;-147.06;54.43
54453;BME280;40363;52.270;10.546;2023-04-07T05:04:56;77681.59;;;-147.06;54.57
54453;BME280;40363;52.270;10.546;2023-04-07T05:07:22;77689.81;;;-147.06;55.12
54453;BME280;40363;52.270;10.546;2023-04-07T05:09:49;77687.75;;;-147.06;54.90
54453;BME280;40363;52.270;10.546;2023-04-07T05:12:16;77677.47;;;-147.06;54.91
54453;BME280;40363;52.270;10.546;2023-04-07T05:14:42;77669.25;;;-147.06;54.70
54453;BME280;40363;52.270;10.546;2023-04-07T05:17:10;77661.03;;;-147.06;54.12
54453;BME280;40363;52.270;10.546;2023-04-07T05:19:37;77646.63;;;-147.06;53.44
54453;BME280;40363;52.270;10.546;2023-04-07T05:22:03;77640.47;;;-147.06;53.72
54453;BME280;40363;52.270;10.546;2023-04-07T05:24:30;77644.59;;;-147.06;53.63
54453;BME280;40363;52.270;10.546;2023-04-07T05:26:56;77648.69;;;-147.06;54.16
54453;BME280;40363;52.270;10.546;2023-04-07T05:29:23;77636.34;;;-147.06;53.86
54453;BME280;40363;52.270;10.546;2023-04-07T05:31:50;77648.69;;;-147.06;54.38
54453;BME280;40363;52.270;10.546;2023-04-07T05:34:18;77652.81;;;-147.06;54.90
54453;BME280;40363;52.270;10.546;2023-04-07T05:36:44;77652.81;;;-147.06;54.63
54453;BME280;40363;52.270;10.546;2023-04-07T05:39:11;77658.97;;;-147.06;54.41
54453;BME280;40363;52.270;10.546;2023-04-07T05:41:38;77646.63;;;-147.06;53.96
54453;BME280;40363;52.270;10.546;2023-04-07T05:44:04;77654.84;;;-147.06;54.21
54453;BME280;40363;52.270;10.546;2023-04-07T05:46:31;77656.91;;;-147.06;54.17
54453;BME280;40363;52.270;10.546;2023-04-07T05:48:58;77650.75;;;-147.06;53.94
54453;BME280;40363;52.270;10.546;2023-04-07T05:51:26;77644.59;;;-147.06;53.50
54453;BME280;40363;52.270;10.546;2023-04-07T05:53:52;77628.13;;;-147.06;53.34
54453;BME280;40363;52.270;10.546;2023-04-07T05:56:19;77634.31;;;-147.06;53.40
54453;BME280;40363;52.270;10.546;2023-04-07T05:58:46;77617.84;;;-147.06;52.82
54453;BME280;40363;52.270;10.546;2023-04-07T06:01:12;77615.78;;;-147.06;52.28
54453;BME280;40363;52.270;10.546;2023-04-07T06:03:39;77603.47;;;-147.06;51.91
54453;BME280;40363;52.270;10.546;2023-04-07T06:06:05;77603.47;;;-147.06;51.93
54453;BME280;40363;52.270;10.546;2023-04-07T06:08:34;77587.00;;;-147.06;51.62
54453;BME280;40363;52.270;10.546;2023-04-07T06:11:00;77582.91;;;-147.06;50.87
54453;BME280;40363;52.270;10.546;2023-04-07T06:13:27;77576.72;;;-147.06;50.64
54453;BME280;40363;52.270;10.546;2023-04-07T06:15:54;77560.28;;;-147.06;51.41
54453;BME280;40363;52.270;10.546;2023-04-07T06:18:21;77554.13;;;-147.06;51.76
54453;BME280;40363;52.270;10.546;2023-04-07T06:20:47;77550.00;;;-147.06;51.77
54453;BME280;40363;52.270;10.546;2023-04-07T06:23:14;77492.44;;;-147.06;50.83
54453;BME280;40363;52.270;10.546;2023-04-07T06:25:42;77451.31;;;-147.06;49.91
54453;BME280;40363;52.270;10.546;2023-04-07T06:28:09;77416.38;;;-147.06;49.06
54453;BME280;40363;52.270;10.546;2023-04-07T06:30:35;77385.53;;;-147.06;48.62
54453;BME280;40363;52.270;10.546;2023-04-07T06:33:02;77342.38;;;-147.06;47.35
54453;BME280;40363;52.270;10.546;2023-04-07T06:35:29;77253.97;;;-147.06;45.90
54453;BME280;40363;52.270;10.546;2023-04-07T06:37:56;77130.63;;;-147.06;43.78
54453;BME280;40363;52.270;10.546;2023-04-07T06:40:22;77054.56;;;-147.06;42.28
54453;BME280;40363;52.270;10.546;2023-04-07T06:42:50;76994.94;;;-147.06;41.29
54453;BME280;40363;52.270;10.546;2023-04-07T06:45:18;76912.72;;;-147.06;40.29
54453;BME280;40363;52.270;10.546;2023-04-07T06:47:45;76834.63;;;-147.06;39.38
54453;BME280;40363;52.270;10.546;2023-04-07T06:50:12;76805.84;;;-147.06;38.92
54453;BME280;40363;52.270;10.546;2023-04-07T06:52:39;76779.13;;;-147.06;38.80
54453;BME280;40363;52.270;10.546;2023-04-07T06:55:07;76709.22;;;-147.06;37.66
54453;BME280;40363;52.270;10.546;2023-04-07T06:57:33;76703.06;;;-147.06;38.02
54453;BME280;40363;52.270;10.546;2023-04-07T07:00:01;76676.34;;;-147.06;37.20
54453;BME280;40363;52.270;10.546;2023-04-07T07:02:28;76696.88;;;-147.06;36.62
54453;BME280;40363;52.270;10.546;2023-04-07T07:04:55;76612.63;;;-147.06;35.62
54453;BME280;40363;52.270;10.546;2023-04-07T07:07:21;76606.44;;;-147.06;35.39
54453;BME280;40363;52.270;10.546;2023-04-07T07:09:50;76530.41;;;-147.06;35.38
54453;BME280;40363;52.270;10.546;2023-04-07T07:12:16;76483.13;;;-147.06;34.98
54453;BME280;40363;52.270;10.546;2023-04-07T07:14:43;76372.13;;;-147.06;34.03
54453;BME280;40363;52.270;10.546;2023-04-07T07:17:11;76444.06;;;-147.06;34.01
54453;BME280;40363;52.270;10.546;2023-04-07T07:19:38;76415.31;;;-147.06;34.04
54453;BME280;40363;52.270;10.546;2023-04-07T07:22:05;76489.28;;;-147.06;34.28
54453;BME280;40363;52.270;10.546;2023-04-07T07:24:31;76485.19;;;-147.06;34.69
54453;BME280;40363;52.270;10.546;2023-04-07T07:26:58;76493.41;;;-147.06;34.16
54453;BME280;40363;52.270;10.546;2023-04-07T07:29:26;76464.63;;;-147.06;34.08
54453;BME280;40363;52.270;10.546;2023-04-07T07:31:52;76507.78;;;-147.06;34.14
54453;BME280;40363;52.270;10.546;2023-04-07T07:34:20;76372.13;;;-147.06;33.50
54453;BME280;40363;52.270;10.546;2023-04-07T07:36:47;76370.09;;;-147.06;33.36
54453;BME280;40363;52.270;10.546;2023-04-07T07:39:13;76382.41;;;-147.06;33.78
54453;BME280;40363;52.270;10.546;2023-04-07T07:41:40;76446.13;;;-147.06;34.19
54453;BME280;40363;52.270;10.546;2023-04-07T07:44:07;76402.97;;;-147.06;33.86
54453;BME280;40363;52.270;10.546;2023-04-07T07:46:33;76474.91;;;-147.06;33.83
54453;BME280;40363;52.270;10.546;2023-04-07T07:49:00;76394.75;;;-147.06;33.30
54453;BME280;40363;52.270;10.546;2023-04-07T07:51:28;76398.84;;;-147.06;33.46
54453;BME280;40363;52.270;10.546;2023-04-07T07:53:55;76394.75;;;-147.06;33.25
54453;BME280;40363;52.270;10.546;2023-04-07T07:56:21;76345.41;;;-147.06;32.46
54453;BME280;40363;52.270;10.546;2023-04-07T07:58:48;76351.59;;;-147.06;32.81
54453;BME280;40363;52.270;10.546;2023-04-07T08:01:15;76363.91;;;-147.06;33.11
54453;BME280;40363;52.270;10.546;2023-04-07T08:03:41;76353.63;;;-147.06;32.95
54453;BME280;40363;52.270;10.546;2023-04-07T08:06:08;76337.19;;;-147.06;33.10
54453;BME280;40363;52.270;10.546;2023-04-07T08:08:37;76413.25;;;-147.06;32.33
54453;BME280;40363;52.270;10.546;2023-04-07T08:11:04;76331.03;;;-147.06;32.46
54453;BME280;40363;52.270;10.546;2023-04-07T08:13:31;76308.44;;;-147.06;32.92
54453;BME280;40363;52.270;10.546;2023-04-07T08:15:57;76287.88;;;-147.06;32.24
54453;BME280;40363;52.270;10.546;2023-04-07T08:18:24;76357.75;;;-147.06;32.29
54453;BME280;40363;52.270;10.546;2023-04-07T08:20:51;76300.19;;;-147.06;32.00
54453;BME280;40363;52.270;10.546;2023-04-07T08:23:18;76314.59;;;-147.06;31.99
54453;BME280;40363;52.270;10.546;2023-04-07T08:25:46;76365.97;;;-147.06;33.12
54453;BME280;40363;52.270;10.546;2023-04-07T08:28:12;76343.38;;;-147.06;31.80
54453;BME280;40363;52.270;10.546;2023-04-07T08:30:39;76448.19;;;-147.06;32.70
54453;BME280;40363;52.270;10.546;2023-04-07T08:33:05;76413.25;;;-147.06;32.33
54453;BME280;40363;52.270;10.546;2023-04-07T08:35:32;76365.97;;;-147.06;32.33
54453;BME280;40363;52.270;10.546;2023-04-07T08:37:59;76378.31;;;-147.06;32.57
54453;BME280;40363;52.270;10.546;2023-04-07T08:40:27;76468.75;;;-147.06;32.66
54453;BME280;40363;52.270;10.546;2023-04-07T08:42:56;76444.06;;;-147.06;33.07
54453;BME280;40363;52.270;10.546;2023-04-07T08:45:26;76476.97;;;-147.06;33.06
54453;BME280;40363;52.270;10.546;2023-04-07T08:47:54;76509.84;;;-147.06;33.53
54453;BME280;40363;52.270;10.546;2023-04-07T08:50:25;76505.75;;;-147.06;32.25
54453;BME280;40363;52.270;10.546;2023-04-07T08:52:53;76466.69;;;-147.06;33.00
54453;BME280;40363;52.270;10.546;2023-04-07T08:55:21;76450.25;;;-147.06;32.14
54453;BME280;40363;52.270;10.546;2023-04-07T08:57:48;76499.56;;;-147.06;32.22
54453;BME280;40363;52.270;10.546;2023-04-07T09:00:17;76423.53;;;-147.06;32.09
54453;BME280;40363;52.270;10.546;2023-04-07T09:02:44;76439.97;;;-147.06;31.79
54453;BME280;40363;52.270;10.546;2023-04-07T09:05:12;76563.28;;;-147.06;32.63
54453;BME280;40363;52.270;10.546;2023-04-07T09:07:39;76618.78;;;-147.06;32.99
54453;BME280;40363;52.270;10.546;2023-04-07T09:10:07;76598.22;;;-147.06;32.89
54453;BME280;40363;52.270;10.546;2023-04-07T09:12:35;76489.28;;;-147.06;33.47
54453;BME280;40363;52.270;10.546;2023-04-07T09:15:02;76485.19;;;-147.06;32.35
54453;BME280;40363;52.270;10.546;2023-04-07T09:17:30;76489.28;;;-147.06;32.25
54453;BME280;40363;52.270;10.546;2023-04-07T09:19:58;76448.19;;;-147.06;32.04
54453;BME280;40363;52.270;10.546;2023-04-07T09:22:36;76413.25;;;-147.06;32.08
54453;BME280;40363;52.270;10.546;2023-04-07T09:25:11;76378.31;;;-147.06;30.44
54453;BME280;40363;52.270;10.546;2023-04-07T09:27:38;76411.19;;;-147.06;31.25
54453;BME280;40363;52.270;10.546;2023-04-07T09:30:11;76431.75;;;-147.06;31.56
54453;BME280;40363;52.270;10.546;2023-04-07T09:32:40;76493.41;;;-147.06;31.28
54453;BME280;40363;52.270;10.546;2023-04-07T09:35:07;76507.78;;;-147.06;31.97
54453;BME280;40363;52.270;10.546;2023-04-07T09:37:34;76511.91;;;-147.06;31.79
54453;BME280;40363;52.270;10.546;2023-04-07T09:40:01;76520.13;;;-147.06;32.28
54453;BME280;40363;52.270;10.546;2023-04-07T09:42:28;76563.28;;;-147.06;32.79
54453;BME280;40363;52.270;10.546;2023-04-07T09:44:57;76575.63;;;-147.06;32.63
54453;BME280;40363;52.270;10.546;2023-04-07T09:47:26;76559.19;;;-147.06;32.68
54453;BME280;40363;52.270;10.546;2023-04-07T09:49:56;76571.50;;;-147.06;32.25
54453;BME280;40363;52.270;10.546;2023-04-07T09:52:25;76462.56;;;-147.06;31.60
54453;BME280;40363;52.270;10.546;2023-04-07T09:55:12;76444.06;;;-147.06;31.90
54453;BME280;40363;52.270;10.546;2023-04-07T09:57:40;76446.13;;;-147.06;31.63
54453;BME280;40363;52.270;10.546;2023-04-07T10:00:08;76474.91;;;-147.06;31.98
54453;BME280;40363;52.270;10.546;2023-04-07T10:02:35;76431.75;;;-147.06;31.86
54453;BME280;40363;52.270;10.546;2023-04-07T10:05:04;76442.03;;;-147.06;31.36
54453;BME280;40363;52.270;10.546;2023-04-07T10:07:31;76505.75;;;-147.06;32.04
54453;BME280;40363;52.270;10.546;2023-04-07T10:09:58;76499.56;;;-147.06;32.14
54453;BME280;40363;52.270;10.546;2023-04-07T10:12:25;76684.56;;;-147.06;33.16
54453;BME280;40363;52.270;10.546;2023-04-07T10:14:53;76563.28;;;-147.06;32.75
54453;BME280;40363;52.270;10.546;2023-04-07T10:17:21;76448.19;;;-147.06;33.12
54453;BME280;40363;52.270;10.546;2023-04-07T10:19:49;76444.06;;;-147.06;31.65
54453;BME280;40363;52.270;10.546;2023-04-07T10:22:18;76569.44;;;-147.06;32.50
54453;BME280;40363;52.270;10.546;2023-04-07T10:24:51;76479.00;;;-147.06;32.63
54453;BME280;40363;52.270;10.546;2023-04-07T10:27:26;76435.84;;;-147.06;32.68
54453;BME280;40363;52.270;10.546;2023-04-07T10:29:54;76374.19;;;-147.06;30.68
54453;BME280;40363;52.270;10.546;2023-04-07T10:32:22;76384.47;;;-147.06;30.92
54453;BME280;40363;52.270;10.546;2023-04-07T10:34:56;76448.19;;;-147.06;30.87
54453;BME280;40363;52.270;10.546;2023-04-07T10:37:25;76497.50;;;-147.06;31.47
54453;BME280;40363;52.270;10.546;2023-04-07T10:42:52;76351.59;;;-147.06;30.34
54453;BME280;40363;52.270;10.546;2023-04-07T10:45:52;76324.88;;;-147.06;30.54
54453;BME280;40363;52.270;10.546;2023-04-07T10:48:21;76384.47;;;-147.06;30.26
54453;BME280;40363;52.270;10.546;2023-04-07T10:51:14;76400.91;;;-147.06;30.29
54453;BME280;40363;52.270;10.546;2023-04-07T10:57:08;76516.00;;;-147.06;31.36
54453;BME280;40363;52.270;10.546;2023-04-07T10:59:37;76546.84;;;-147.06;31.95
54453;BME280;40363;52.270;10.546;2023-04-07T11:02:31;76534.50;;;-147.06;32.55
54453;BME280;40363;52.270;10.546;2023-04-07T11:04:58;76577.69;;;-147.06;31.99
54453;BME280;40363;52.270;10.546;2023-04-07T11:07:47;76616.72;;;-147.06;32.15
54453;BME280;40363;52.270;10.546;2023-04-07T11:10:15;76651.66;;;-147.06;33.39
54453;BME280;40363;52.270;10.546;2023-04-07T11:12:57;76610.56;;;-147.06;32.67
54453;BME280;40363;52.270;10.546;2023-04-07T11:15:24;76637.28;;;-147.06;33.03
54453;BME280;40363;52.270;10.546;2023-04-07T11:18:12;76641.41;;;-147.06;33.08
54453;BME280;40363;52.270;10.546;2023-04-07T11:20:46;76641.41;;;-147.06;33.46
54453;BME280;40363;52.270;10.546;2023-04-07T11:23:14;76686.63;;;-147.06;33.64
54453;BME280;40363;52.270;10.546;2023-04-07T11:25:42;76645.50;;;-147.06;34.01
54453;BME280;40363;52.270;10.546;2023-04-07T11:28:12;76674.28;;;-147.06;34.18
54453;BME280;40363;52.270;10.546;2023-04-07T11:30:45;76787.34;;;-147.06;34.14
54453;BME280;40363;52.270;10.546;2023-04-07T11:33:17;76766.78;;;-147.06;34.51
54453;BME280;40363;52.270;10.546;2023-04-07T11:35:49;76707.16;;;-147.06;34.25
54453;BME280;40363;52.270;10.546;2023-04-07T11:38:16;76672.22;;;-147.06;34.77
54453;BME280;40363;52.270;10.546;2023-04-07T11:40:43;76711.28;;;-147.06;34.12
54453;BME280;40363;52.270;10.546;2023-04-07T11:43:18;76637.28;;;-147.06;33.67
54453;BME280;40363;52.270;10.546;2023-04-07T11:45:46;76698.94;;;-147.06;34.57
54453;BME280;40363;52.270;10.546;2023-04-07T11:48:25;76711.28;;;-147.06;33.82
54453;BME280;40363;52.270;10.546;2023-04-07T11:50:51;76742.09;;;-147.06;34.90
54453;BME280;40363;52.270;10.546;2023-04-07T11:53:24;76698.94;;;-147.06;34.23
54453;BME280;40363;52.270;10.546;2023-04-07T11:55:58;76614.69;;;-147.06;34.35
54453;BME280;40363;52.270;10.546;2023-04-07T11:58:26;76587.94;;;-147.06;33.32
54453;BME280;40363;52.270;10.546;2023-04-07T12:00:53;76569.44;;;-147.06;32.68
54453;BME280;40363;52.270;10.546;2023-04-07T12:03:21;76649.63;;;-147.06;33.43
54453;BME280;40363;52.270;10.546;2023-04-07T12:05:48;76594.13;;;-147.06;33.78
54453;BME280;40363;52.270;10.546;2023-04-07T12:08:15;76670.16;;;-147.06;33.26
54453;BME280;40363;52.270;10.546;2023-04-07T12:10:42;76618.78;;;-147.06;33.57
54453;BME280;40363;52.270;10.546;2023-04-07T12:13:08;76620.84;;;-147.06;33.59
54453;BME280;40363;52.270;10.546;2023-04-07T12:15:36;76620.84;;;-147.06;33.32
54453;BME280;40363;52.270;10.546;2023-04-07T12:18:03;76587.94;;;-147.06;33.26
54453;BME280;40363;52.270;10.546;2023-04-07T12:20:30;76577.69;;;-147.06;32.80
54453;BME280;40363;52.270;10.546;2023-04-07T12:22:57;76676.34;;;-147.06;33.61
54453;BME280;40363;52.270;10.546;2023-04-07T12:25:25;76651.66;;;-147.06;33.59
54453;BME280;40363;52.270;10.546;2023-04-07T12:27:51;76610.56;;;-147.06;33.24
54453;BME280;40363;52.270;10.546;2023-04-07T12:30:18;76579.72;;;-147.06;33.22
54453;BME280;40363;52.270;10.546;2023-04-07T12:32:46;76567.41;;;-147.06;33.22
54453;BME280;40363;52.270;10.546;2023-04-07T12:35:13;76559.19;;;-147.06;32.28
54453;BME280;40363;52.270;10.546;2023-04-07T12:37:40;76546.84;;;-147.06;32.34
54453;BME280;40363;52.270;10.546;2023-04-07T12:40:07;76559.19;;;-147.06;33.04
54453;BME280;40363;52.270;10.546;2023-04-07T12:42:33;76553.00;;;-147.06;32.64
54453;BME280;40363;52.270;10.546;2023-04-07T12:45:00;76553.00;;;-147.06;32.67
54453;BME280;40363;52.270;10.546;2023-04-07T12:47:27;76573.56;;;-147.06;32.50